Time;durP1;ratioP1;P1;durP2;ratioP2;P2;SDS_P1;SDS_P2;PMS_P1;PMS_P2;Temp;Humidity;BMP_temperature;BMP_pressure;BME280_temperature;BME280_humidity;BME280_pressure;Samples;Min_cycle;Max_cycle;Signal;HPM_P1;HPM_P2
2021/07/22 00:00:22;;;;;;;4.80;3.00;;;;;;;19.41;62.88;99343.38;1675918;84;21075;-80
2021/07/22 00:02:49;;;;;;;9.05;4.30;;;;;;;19.34;63.03;99356.11;1686805;83;22218;-79
2021/07/22 00:05:17;;;;;;;5.67;2.72;;;;;;;19.33;63.23;99344.17;1647875;84;21632;-77
2021/07/22 00:07:47;;;;;;;5.55;3.05;;;;;;;19.32;63.37;99345.28;1662788;85;20936;-79
2021/07/22 00:10:15;;;;;;;3.85;3.30;;;;;;;19.26;63.49;99343.25;1667591;85;21007;-78
2021/07/22 00:12:42;;;;;;;5.42;3.30;;;;;;;19.23;63.67;99349.91;1668985;84;21022;-78
2021/07/22 00:15:10;;;;;;;5.95;2.85;;;;;;;19.18;63.95;99343.45;1669111;84;21404;-79
2021/07/22 00:17:36;;;;;;;5.35;3.25;;;;;;;19.22;63.70;99356.47;1716863;83;21023;-81
2021/07/22 00:20:05;;;;;;;7.37;3.40;;;;;;;19.20;63.86;99355.97;1699003;82;21011;-79
2021/07/22 00:22:37;;;;;;;4.53;2.77;;;;;;;19.09;64.22;99356.80;1730403;81;21006;-79
2021/07/22 00:25:08;;;;;;;5.62;3.12;;;;;;;19.03;64.46;99358.08;1735267;82;21502;-79
2021/07/22 00:27:35;;;;;;;9.40;3.08;;;;;;;19.00;64.66;99355.40;1697659;83;21086;-80
2021/07/22 00:30:01;;;;;;;3.80;2.52;;;;;;;19.00;64.82;99360.05;1697405;83;20995;-80
2021/07/22 00:32:29;;;;;;;3.35;3.05;;;;;;;19.00;64.94;99360.85;1727805;83;21511;-81
2021/07/22 00:34:57;;;;;;;4.70;2.62;;;;;;;19.03;65.02;99363.53;1697115;83;20990;-81
2021/07/22 00:37:23;;;;;;;3.55;3.08;;;;;;;19.05;64.95;99364.00;1714479;83;21649;-79
2021/07/22 00:39:50;;;;;;;6.80;3.55;;;;;;;19.06;65.04;99368.34;1709571;83;21071;-80
2021/07/22 00:42:18;;;;;;;4.80;3.08;;;;;;;19.08;64.99;99363.39;1691230;83;20983;-76
2021/07/22 00:44:44;;;;;;;4.15;3.20;;;;;;;19.02;65.23;99374.17;1728494;81;21037;-77
2021/07/22 00:47:12;;;;;;;3.90;2.90;;;;;;;18.86;65.84;99368.31;1726499;81;21477;-76
2021/07/22 00:49:40;;;;;;;7.08;3.20;;;;;;;18.78;66.13;99364.19;1734925;82;21005;-77
2021/07/22 00:52:06;;;;;;;4.45;3.60;;;;;;;18.67;66.62;99372.61;1731314;81;22072;-75
2021/07/22 00:54:33;;;;;;;4.25;2.98;;;;;;;18.60;66.83;99370.89;1729536;83;21555;-76
2021/07/22 00:57:00;;;;;;;5.87;3.90;;;;;;;18.57;67.00;99378.86;1729321;83;21548;-76
2021/07/22 00:59:27;;;;;;;4.97;3.02;;;;;;;18.55;67.07;99362.84;1698221;83;21043;-75
2021/07/22 01:01:54;;;;;;;6.30;3.92;;;;;;;18.50;67.48;99376.56;1698681;83;21099;-76
2021/07/22 01:04:20;;;;;;;7.40;2.70;;;;;;;18.47;67.65;99381.80;1723082;81;21358;-76
2021/07/22 01:06:48;;;;;;;5.22;3.00;;;;;;;18.43;67.83;99369.91;1682704;83;21038;-75
2021/07/22 01:09:16;;;;;;;4.03;3.42;;;;;;;18.39;67.94;99379.82;1696438;83;21036;-75
2021/07/22 01:11:45;;;;;;;9.80;4.28;;;;;;;18.36;68.19;99383.98;1717925;83;21379;-75
2021/07/22 01:14:12;;;;;;;6.30;3.45;;;;;;;18.34;68.30;99395.73;1719688;83;21551;-75
2021/07/22 01:16:39;;;;;;;5.17;3.45;;;;;;;18.41;67.81;99383.86;1719586;83;21131;-75
2021/07/22 01:19:07;;;;;;;4.40;2.72;;;;;;;18.35;68.23;99389.17;1719581;83;21556;-76
2021/07/22 01:21:34;;;;;;;3.75;3.37;;;;;;;18.26;68.64;99385.03;1693050;83;21016;-77
2021/07/22 01:24:03;;;;;;;5.75;3.10;;;;;;;18.22;68.82;99385.95;1719580;83;21059;-77
2021/07/22 01:26:48;;;;;;;4.35;3.12;;;;;;;18.18;68.98;99393.09;1719551;83;21045;-77
2021/07/22 01:29:19;;;;;;;7.30;3.90;;;;;;;18.10;69.33;99385.11;1716683;83;21152;-76
2021/07/22 01:31:46;;;;;;;5.12;3.15;;;;;;;18.07;69.59;99384.37;1670090;83;21032;-76
2021/07/22 01:34:13;;;;;;;2.70;2.50;;;;;;;18.05;69.71;99405.63;1667689;84;21070;-77
2021/07/22 01:36:40;;;;;;;4.40;2.75;;;;;;;18.10;69.34;99402.80;1690826;84;21560;-76
2021/07/22 01:39:06;;;;;;;4.30;3.00;;;;;;;18.04;69.71;99410.02;1693297;83;21071;-79
2021/07/22 01:41:35;;;;;;;11.68;3.35;;;;;;;18.01;69.79;99395.67;1678980;84;22196;-78
2021/07/22 01:44:03;;;;;;;5.45;3.10;;;;;;;17.90;70.49;99414.13;1690970;84;21524;-77
2021/07/22 01:46:30;;;;;;;5.62;3.62;;;;;;;17.83;70.83;99405.03;1736954;82;21091;-79
2021/07/22 01:48:57;;;;;;;6.12;3.02;;;;;;;17.80;70.90;99405.63;1732563;82;21568;-78
2021/07/22 01:51:24;;;;;;;4.35;2.67;;;;;;;17.75;71.19;99396.20;1720205;83;21103;-76
2021/07/22 01:53:55;;;;;;;4.05;3.12;;;;;;;17.78;70.83;99411.12;1719608;83;21081;-78
2021/07/22 01:56:22;;;;;;;6.12;3.25;;;;;;;17.78;70.83;99409.77;1679387;83;20932;-76
2021/07/22 01:58:49;;;;;;;5.42;3.22;;;;;;;17.76;70.94;99416.05;1699124;83;20989;-76
2021/07/22 02:01:17;;;;;;;5.30;3.00;;;;;;;17.70;71.36;99413.98;1691121;84;21526;-77
2021/07/22 02:03:45;;;;;;;4.53;3.67;;;;;;;17.65;71.52;99415.45;1690808;84;21032;-76
2021/07/22 02:06:12;;;;;;;10.28;4.97;;;;;;;17.60;71.54;99420.99;1663936;84;21753;-76
2021/07/22 02:08:40;;;;;;;6.20;3.02;;;;;;;17.58;71.73;99417.75;1707082;83;21442;-76
2021/07/22 02:11:09;;;;;;;4.15;3.17;;;;;;;17.57;71.62;99425.66;1726733;82;21599;-76
2021/07/22 02:13:36;;;;;;;5.10;3.00;;;;;;;17.55;71.75;99424.36;1729385;83;21015;-76
2021/07/22 02:16:07;;;;;;;6.97;2.87;;;;;;;17.63;71.26;99423.13;1698729;83;21109;-77
2021/07/22 02:18:34;;;;;;;4.70;3.10;;;;;;;17.63;71.22;99426.40;1717563;81;23168;-78
2021/07/22 02:21:06;;;;;;;8.38;3.00;;;;;;;17.61;71.30;99415.81;1721873;83;21001;-76
2021/07/22 02:23:36;;;;;;;12.65;5.10;;;;;;;17.62;71.34;99424.23;1694132;83;21086;-76
2021/07/22 02:26:05;;;;;;;5.55;3.33;;;;;;;17.57;71.58;99419.41;1726709;83;21063;-76
2021/07/22 02:28:32;;;;;;;4.55;3.17;;;;;;;17.61;71.31;99427.23;1699151;83;21023;-75
2021/07/22 02:30:59;;;;;;;4.70;3.00;;;;;;;17.64;71.15;99432.91;1695330;83;22236;-77
2021/07/22 02:33:26;;;;;;;3.47;3.05;;;;;;;17.63;71.13;99427.75;1700685;83;20980;-78
2021/07/22 02:35:55;;;;;;;6.05;3.17;;;;;;;17.64;71.02;99432.91;1702145;83;21007;-76
2021/07/22 02:38:27;;;;;;;3.05;2.77;;;;;;;17.71;70.85;99428.40;1713453;81;21941;-77
2021/07/22 02:40:54;;;;;;;9.48;3.12;;;;;;;17.76;70.63;99433.19;1700377;83;21107;-77
2021/07/22 02:43:21;;;;;;;4.22;2.80;;;;;;;17.81;70.34;99429.55;1700408;83;21624;-76
2021/07/22 02:45:49;;;;;;;7.97;2.95;;;;;;;17.84;70.10;99433.83;1700304;84;20969;-78
2021/07/22 02:48:15;;;;;;;6.37;4.30;;;;;;;17.85;70.01;99435.45;1719657;81;21090;-78
2021/07/22 02:50:46;;;;;;;4.17;2.92;;;;;;;17.82;69.89;99446.95;1765521;81;37910;-76
2021/07/22 02:53:13;;;;;;;2.58;2.37;;;;;;;17.82;69.97;99445.59;1734970;81;21148;-76
2021/07/22 02:55:59;;;;;;;5.67;3.87;;;;;;;17.80;69.88;99456.50;1719095;81;22066;-77
2021/07/22 02:58:27;;;;;;;5.58;3.65;;;;;;;17.78;69.80;99453.30;1740560;81;20967;-78
2021/07/22 03:00:54;;;;;;;3.95;3.15;;;;;;;17.77;69.84;99450.32;1750333;81;20983;-76
2021/07/22 03:03:22;;;;;;;6.42;3.17;;;;;;;17.74;69.90;99460.45;1729913;83;21018;-76
2021/07/22 03:05:49;;;;;;;5.10;2.92;;;;;;;17.68;70.01;99460.30;1730400;81;21525;-75
2021/07/22 03:08:18;;;;;;;4.12;2.85;;;;;;;17.65;70.00;99456.83;1710276;81;21246;-78
2021/07/22 03:10:45;;;;;;;8.25;2.92;;;;;;;17.60;70.05;99464.51;1732055;80;20992;-78
2021/07/22 03:13:12;;;;;;;5.05;2.92;;;;;;;17.57;70.13;99474.61;1649703;84;21560;-78
2021/07/22 03:15:39;;;;;;;7.42;3.27;;;;;;;17.58;70.03;99474.06;1700431;84;21052;-77
2021/07/22 03:18:07;;;;;;;7.10;3.15;;;;;;;17.59;69.90;99501.55;1705321;81;20933;-76
2021/07/22 03:20:34;;;;;;;4.17;3.05;;;;;;;17.57;69.57;99485.48;1720836;82;21140;-76
2021/07/22 03:23:02;;;;;;;5.53;3.27;;;;;;;17.54;69.67;99482.02;1706869;81;20983;-76
2021/07/22 03:25:31;;;;;;;5.65;3.35;;;;;;;17.52;69.59;99486.12;1725529;81;20985;-75
2021/07/22 03:28:02;;;;;;;4.22;2.90;;;;;;;17.51;69.54;99491.31;1733997;81;20997;-76
2021/07/22 03:30:30;;;;;;;7.67;3.02;;;;;;;17.49;69.48;99499.78;1727541;82;21083;-79
2021/07/22 03:33:15;;;;;;;7.50;3.10;;;;;;;17.48;69.55;99491.37;1724219;82;21108;-85
2021/07/22 03:35:44;;;;;;;5.50;3.08;;;;;;;17.49;69.55;99488.91;1697728;83;21562;-84
2021/07/22 03:38:11;;;;;;;13.93;3.80;;;;;;;17.52;69.25;99482.86;1729902;81;22167;-84
2021/07/22 03:40:41;;;;;;;3.85;2.50;;;;;;;17.51;69.11;99482.59;1768404;81;20932;-83
2021/07/22 03:43:08;;;;;;;4.95;3.47;;;;;;;17.54;68.97;99496.98;1768482;81;20999;-84
2021/07/22 03:45:36;;;;;;;6.17;3.22;;;;;;;17.54;68.83;99490.73;1768669;81;21129;-84
2021/07/22 03:48:03;;;;;;;9.98;3.92;;;;;;;17.54;68.89;99488.00;1732628;81;21005;-85
2021/07/22 03:50:30;;;;;;;6.75;4.28;;;;;;;17.53;68.87;99492.64;1725938;82;21076;-85
2021/07/22 03:52:57;;;;;;;11.53;4.53;;;;;;;17.50;68.94;99495.97;1704956;82;21060;-83
2021/07/22 03:55:25;;;;;;;7.17;4.15;;;;;;;17.53;69.01;99485.84;1705554;82;21084;-81
2021/07/22 03:57:59;;;;;;;8.03;4.35;;;;;;;17.55;68.93;99496.42;1661490;84;21097;-80
2021/07/22 04:00:26;;;;;;;9.58;4.08;;;;;;;17.55;68.70;99494.52;1677389;84;20940;-82
2021/07/22 04:03:01;;;;;;;7.47;3.12;;;;;;;17.59;68.91;99500.19;1704507;83;21026;-83
2021/07/22 04:05:29;;;;;;;6.35;3.85;;;;;;;17.60;68.80;99493.64;1677042;84;20963;-81
2021/07/22 04:07:57;;;;;;;14.60;5.30;;;;;;;17.62;68.99;99500.93;1723281;81;21602;-81
2021/07/22 04:10:29;;;;;;;5.87;3.77;;;;;;;17.63;69.01;99499.83;1748500;81;21949;-81
2021/07/22 04:13:01;;;;;;;6.83;3.90;;;;;;;17.63;68.91;99510.16;1726387;83;21014;-82
2021/07/22 04:15:44;;;;;;;6.45;3.85;;;;;;;17.63;69.00;99508.80;1697952;82;21538;-80
2021/07/22 04:18:12;;;;;;;5.12;2.95;;;;;;;17.63;69.01;99506.08;1725984;82;22080;-84
2021/07/22 04:21:00;;;;;;;7.12;4.62;;;;;;;17.67;69.09;99504.92;1706984;82;21558;-81
2021/07/22 04:23:41;;;;;;;13.75;5.95;;;;;;;17.70;68.97;99509.20;1677582;83;21115;-83
2021/07/22 04:26:16;;;;;;;7.03;3.75;;;;;;;17.74;68.79;99524.38;1720745;83;21050;-82
2021/07/22 04:29:02;;;;;;;3.70;2.77;;;;;;;17.75;68.88;99498.77;1698258;84;21032;-84
2021/07/22 04:31:29;;;;;;;4.10;3.25;;;;;;;17.75;68.86;99514.54;1700320;84;21496;-82
2021/07/22 04:34:00;;;;;;;6.53;3.22;;;;;;;17.78;68.74;99523.48;1633090;84;20964;-85
2021/07/22 04:36:31;;;;;;;5.62;3.85;;;;;;;17.80;68.61;99523.97;1709632;81;21219;-84
2021/07/22 04:38:59;;;;;;;7.05;2.70;;;;;;;17.82;68.67;99516.33;1744576;81;20900;-87
2021/07/22 04:41:36;;;;;;;6.20;3.37;;;;;;;17.85;68.81;99528.50;1765479;81;20920;-84
2021/07/22 04:44:07;;;;;;;4.75;2.12;;;;;;;17.90;68.66;99535.20;1764378;81;21027;-81
2021/07/22 04:46:54;;;;;;;5.53;4.17;;;;;;;17.94;68.53;99525.91;1752614;81;21122;-83
2021/07/22 04:49:28;;;;;;;13.72;4.00;;;;;;;17.97;68.33;99519.85;1727298;83;21003;-81
2021/07/22 04:52:06;;;;;;;5.53;3.10;;;;;;;17.98;68.51;99528.28;1718584;83;20932;-81
2021/07/22 04:54:34;;;;;;;7.25;4.05;;;;;;;18.02;68.41;99525.20;1694159;83;21516;-81
2021/07/22 04:57:00;;;;;;;9.83;3.60;;;;;;;18.04;68.30;99522.41;1695875;83;21063;-82
2021/07/22 04:59:28;;;;;;;9.03;2.92;;;;;;;18.05;68.35;99515.86;1669187;84;21003;-82
2021/07/22 05:01:56;;;;;;;9.48;3.15;;;;;;;18.07;68.56;99525.91;1698802;84;21886;-81
2021/07/22 05:04:23;;;;;;;8.58;3.42;;;;;;;18.11;68.36;99528.82;1669084;84;20987;-81
2021/07/22 05:06:51;;;;;;;5.25;3.20;;;;;;;18.17;68.36;99517.53;1703103;81;21627;-81
2021/07/22 05:09:26;;;;;;;8.28;3.58;;;;;;;18.24;68.07;99524.72;1754036;81;20983;-81
2021/07/22 05:12:07;;;;;;;8.60;3.60;;;;;;;18.29;67.90;99519.72;1699949;83;21099;-80
2021/07/22 05:14:43;;;;;;;5.47;4.00;;;;;;;18.35;68.04;99519.88;1695074;83;20893;-80
2021/07/22 05:17:17;;;;;;;3.77;3.47;;;;;;;18.36;67.96;99525.58;1672767;83;21033;-79
2021/07/22 05:19:45;;;;;;;4.20;2.85;;;;;;;18.30;68.17;99520.79;1652490;84;21025;-82
2021/07/22 05:22:21;;;;;;;5.20;2.77;;;;;;;18.33;68.38;99513.91;1703101;82;20985;-79
2021/07/22 05:24:50;;;;;;;6.00;3.50;;;;;;;18.36;68.25;99522.86;1653587;84;21042;-82
2021/07/22 05:27:33;;;;;;;7.12;3.33;;;;;;;18.40;68.33;99517.59;1726511;81;21199;-82
2021/07/22 05:30:13;;;;;;;4.75;3.10;;;;;;;18.43;68.27;99520.50;1698785;83;20947;-80
2021/07/22 05:32:57;;;;;;;5.87;3.30;;;;;;;18.47;68.14;99524.22;1692237;84;27717;-82
2021/07/22 05:35:43;;;;;;;3.90;3.15;;;;;;;18.51;68.00;99527.16;1611162;88;21099;-80
2021/07/22 05:38:12;;;;;;;5.22;3.52;;;;;;;18.57;68.15;99526.77;1659150;85;22281;-81
2021/07/22 05:40:39;;;;;;;7.05;3.05;;;;;;;18.65;68.21;99536.95;1642406;84;21030;-81
2021/07/22 05:43:05;;;;;;;4.92;3.33;;;;;;;18.72;68.03;99535.14;1642571;84;21496;-80
2021/07/22 05:45:32;;;;;;;3.77;2.58;;;;;;;18.75;67.93;99540.00;1682458;83;21524;-82
2021/07/22 05:47:58;;;;;;;6.35;3.15;;;;;;;18.79;67.80;99532.82;1754112;81;20947;-82
2021/07/22 05:50:25;;;;;;;8.85;3.10;;;;;;;18.86;67.77;99537.83;1760273;81;21043;-80
2021/07/22 05:52:51;;;;;;;3.98;3.27;;;;;;;18.91;67.63;99538.52;1702120;81;21252;-80
2021/07/22 05:55:18;;;;;;;4.03;3.45;;;;;;;18.97;67.51;99538.66;1698835;83;21043;-81
2021/07/22 05:57:44;;;;;;;6.37;3.17;;;;;;;19.02;67.17;99537.73;1693903;83;21626;-85
2021/07/22 06:00:12;;;;;;;7.85;3.25;;;;;;;19.07;66.92;99534.33;1721990;83;21810;-86
2021/07/22 06:02:38;;;;;;;8.68;3.30;;;;;;;19.13;67.05;99539.11;1728386;83;21532;-82
2021/07/22 06:05:06;;;;;;;4.50;3.00;;;;;;;19.20;66.80;99538.65;1690171;85;21033;-82
2021/07/22 06:07:33;;;;;;;5.33;2.85;;;;;;;19.23;66.57;99541.58;1715183;83;20942;-82
2021/07/22 06:10:00;;;;;;;5.80;3.22;;;;;;;19.27;66.40;99538.48;1623262;83;20987;-81
2021/07/22 06:12:29;;;;;;;6.80;4.30;;;;;;;19.31;66.86;99550.38;1717058;83;20991;-82
2021/07/22 06:14:54;;;;;;;5.15;3.02;;;;;;;19.37;66.53;99548.33;1715551;83;21525;-82
2021/07/22 06:17:21;;;;;;;6.40;3.60;;;;;;;19.43;66.05;99541.61;1693523;83;21196;-80
2021/07/22 06:19:47;;;;;;;4.75;4.10;;;;;;;19.48;66.01;99551.86;1687568;84;20938;-79
2021/07/22 06:22:14;;;;;;;6.12;3.47;;;;;;;19.53;65.85;99550.93;1693198;84;21010;-82
2021/07/22 06:24:40;;;;;;;5.30;3.80;;;;;;;19.59;65.81;99543.67;1693087;84;21057;-81
2021/07/22 06:27:12;;;;;;;7.40;3.60;;;;;;;19.64;65.43;99556.38;1677159;84;21033;-80
2021/07/22 06:29:39;;;;;;;5.03;3.33;;;;;;;19.66;65.29;99556.08;1695740;83;21778;-83
2021/07/22 06:32:07;;;;;;;4.97;3.62;;;;;;;19.71;65.63;99545.03;1694357;83;20978;-80
2021/07/22 06:34:33;;;;;;;4.85;3.00;;;;;;;19.77;65.37;99548.66;1719465;83;21626;-80
2021/07/22 06:36:59;;;;;;;5.08;2.75;;;;;;;19.84;64.45;99545.48;1719001;83;21532;-80
2021/07/22 06:39:25;;;;;;;5.10;3.42;;;;;;;19.88;64.21;99551.92;1687746;84;21554;-79
2021/07/22 06:42:02;;;;;;;9.93;3.45;;;;;;;19.95;64.35;99548.19;1711889;83;21198;-80
2021/07/22 06:44:29;;;;;;;3.08;2.42;;;;;;;20.00;64.45;99543.92;1669928;84;21012;-79
2021/07/22 06:46:55;;;;;;;3.42;2.47;;;;;;;20.07;63.74;99548.39;1654992;85;21004;-83
2021/07/22 06:49:21;;;;;;;10.98;3.22;;;;;;;20.12;63.38;99549.61;1696358;83;21089;-82
2021/07/22 06:51:48;;;;;;;8.20;4.08;;;;;;;20.13;62.81;99547.69;1691574;83;21028;-82
2021/07/22 06:54:16;;;;;;;7.58;3.52;;;;;;;20.16;63.13;99557.41;1680765;85;21508;-84
2021/07/22 06:56:44;;;;;;;3.35;2.83;;;;;;;20.19;62.75;99555.40;1680074;85;20988;-83
2021/07/22 06:59:10;;;;;;;4.30;2.90;;;;;;;20.24;62.18;99551.16;1685643;83;21027;-84
2021/07/22 07:01:36;;;;;;;5.78;2.95;;;;;;;20.31;60.96;99547.45;1717619;83;21593;-82
2021/07/22 07:04:03;;;;;;;3.15;2.67;;;;;;;20.37;59.90;99542.65;1720067;83;22280;-83
2021/07/22 07:06:32;;;;;;;2.92;2.72;;;;;;;20.42;58.52;99535.67;1719742;83;21058;-83
2021/07/22 07:08:59;;;;;;;3.17;2.50;;;;;;;20.48;57.67;99551.36;1719253;83;20969;-82
2021/07/22 07:11:25;;;;;;;4.47;2.27;;;;;;;20.55;57.85;99551.67;1710751;83;21047;-83
2021/07/22 07:13:51;;;;;;;8.48;3.65;;;;;;;20.62;58.48;99543.82;1729594;83;21584;-81
2021/07/22 07:16:18;;;;;;;8.98;3.87;;;;;;;20.71;59.18;99562.41;1677896;84;21536;-83
2021/07/22 07:18:44;;;;;;;4.03;2.52;;;;;;;20.78;60.53;99553.95;1714146;83;21909;-81
2021/07/22 07:21:11;;;;;;;5.87;2.92;;;;;;;20.87;59.85;99559.42;1702243;83;21003;-82
2021/07/22 07:23:37;;;;;;;3.92;2.60;;;;;;;20.96;60.12;99553.39;1728760;83;21464;-83
2021/07/22 07:26:04;;;;;;;3.47;3.17;;;;;;;21.04;59.72;99562.73;1729495;83;20943;-81
2021/07/22 07:28:32;;;;;;;5.70;2.50;;;;;;;21.08;58.68;99564.50;1657206;84;20987;-83
2021/07/22 07:30:58;;;;;;;5.20;2.98;;;;;;;21.11;58.49;99561.11;1705279;83;22113;-83
2021/07/22 07:33:27;;;;;;;3.92;2.58;;;;;;;21.14;58.13;99565.99;1696997;83;21615;-82
2021/07/22 07:35:53;;;;;;;2.70;2.33;;;;;;;21.19;57.61;99559.55;1697476;83;20992;-81
2021/07/22 07:38:19;;;;;;;5.35;3.65;;;;;;;21.21;57.46;99567.66;1692365;84;21057;-81
2021/07/22 07:40:46;;;;;;;4.80;2.67;;;;;;;21.27;57.45;99571.04;1668773;86;21155;-85
2021/07/22 07:43:20;;;;;;;3.60;2.52;;;;;;;21.35;57.32;99557.09;1700929;83;21145;-84
2021/07/22 07:45:46;;;;;;;5.87;2.65;;;;;;;21.45;57.18;99557.56;1700118;84;20989;-81
2021/07/22 07:48:12;;;;;;;3.50;2.55;;;;;;;21.50;56.28;99553.85;1713610;83;21062;-86
2021/07/22 07:50:39;;;;;;;3.40;3.08;;;;;;;21.54;56.56;99542.49;1715023;82;20999;-84
2021/07/22 07:53:16;;;;;;;6.12;2.85;;;;;;;21.62;57.10;99560.28;1724400;83;21012;-87
2021/07/22 07:55:45;;;;;;;3.42;2.25;;;;;;;21.70;55.96;99562.19;1727860;82;21529;-84
2021/07/22 07:58:12;;;;;;;3.15;2.50;;;;;;;21.76;55.59;99566.92;1727760;81;21528;-85
2021/07/22 08:00:38;;;;;;;5.15;3.37;;;;;;;21.82;55.13;99566.19;1727946;83;21484;-84
2021/07/22 08:03:06;;;;;;;3.12;2.65;;;;;;;21.87;54.46;99561.91;1705737;83;21062;-82
2021/07/22 08:05:38;;;;;;;2.52;2.33;;;;;;;21.92;53.12;99565.83;1700279;83;21045;-86
2021/07/22 08:08:05;;;;;;;7.40;2.95;;;;;;;21.96;52.61;99561.34;1684890;83;21572;-87
2021/07/22 08:10:32;;;;;;;8.93;4.78;;;;;;;22.01;51.32;99558.41;1698466;82;21008;-85
2021/07/22 08:13:06;;;;;;;5.65;4.25;;;;;;;21.98;49.76;99563.16;1725135;83;21548;-85
2021/07/22 08:15:34;;;;;;;3.85;2.70;;;;;;;21.99;50.42;99557.92;1725352;83;21004;-85
2021/07/22 08:18:01;;;;;;;6.90;2.70;;;;;;;22.03;51.26;99553.39;1725192;83;21429;-85
2021/07/22 08:20:27;;;;;;;4.60;2.83;;;;;;;22.08;51.87;99561.43;1725294;83;21589;-87
2021/07/22 08:22:53;;;;;;;3.87;2.33;;;;;;;22.12;52.00;99559.08;1711322;83;21042;-85
2021/07/22 08:25:20;;;;;;;4.25;2.95;;;;;;;22.16;50.20;99561.39;1686278;84;20959;-89
2021/07/22 08:27:46;;;;;;;7.55;2.55;;;;;;;22.15;50.57;99565.28;1665775;84;20962;-86
2021/07/22 08:30:13;;;;;;;2.20;1.98;;;;;;;22.11;49.91;99562.13;1662600;86;21561;-87
2021/07/22 08:32:40;;;;;;;3.17;2.22;;;;;;;22.07;49.72;99563.92;1691372;84;21752;-86
2021/07/22 08:35:07;;;;;;;5.15;2.00;;;;;;;22.06;48.94;99560.38;1684437;84;21029;-86
2021/07/22 08:37:33;;;;;;;3.77;2.20;;;;;;;22.06;48.13;99563.71;1653380;86;21029;-86
2021/07/22 08:40:05;;;;;;;3.33;2.70;;;;;;;22.09;48.74;99558.94;1637537;86;21012;-87
2021/07/22 08:42:29;;;;;;;6.28;2.33;;;;;;;22.15;49.27;99559.80;1638284;86;21027;-84
2021/07/22 08:44:56;;;;;;;4.85;2.10;;;;;;;22.23;48.86;99562.25;1670959;85;21242;-83
2021/07/22 08:47:22;;;;;;;2.12;1.47;;;;;;;22.30;48.41;99559.78;1646941;85;21052;-85
2021/07/22 08:49:48;;;;;;;5.45;2.02;;;;;;;22.35;47.59;99565.67;1672608;85;21038;-86
2021/07/22 08:52:15;;;;;;;6.92;2.90;;;;;;;22.36;47.96;99567.25;1661702;84;21048;-84
2021/07/22 08:54:41;;;;;;;3.40;3.10;;;;;;;22.36;47.29;99566.69;1635246;86;20964;-83
2021/07/22 08:57:10;;;;;;;6.37;2.05;;;;;;;22.42;46.84;99557.72;1663903;85;21033;-88
2021/07/22 08:59:37;;;;;;;9.35;2.05;;;;;;;22.50;45.17;99574.67;1647105;85;20976;-85
2021/07/22 09:02:04;;;;;;;5.05;2.60;;;;;;;22.62;46.34;99551.47;1635835;86;21633;-85
2021/07/22 09:04:30;;;;;;;4.92;1.50;;;;;;;22.75;46.48;99559.22;1642996;86;21123;-85
2021/07/22 09:06:58;;;;;;;4.17;2.92;;;;;;;22.83;44.47;99559.75;1649296;85;21049;-77
2021/07/22 09:09:24;;;;;;;2.65;1.77;;;;;;;22.87;43.49;99563.42;1665244;84;21209;-78
2021/07/22 09:12:00;;;;;;;3.45;2.10;;;;;;;22.96;42.94;99573.75;1693377;84;20915;-78
2021/07/22 09:14:29;;;;;;;2.30;1.75;;;;;;;23.02;42.77;99567.71;1683121;84;21103;-79
2021/07/22 09:16:57;;;;;;;2.15;1.60;;;;;;;23.02;42.71;99571.83;1698541;84;21536;-73
2021/07/22 09:19:40;;;;;;;2.40;1.70;;;;;;;23.04;42.76;99568.19;1690915;83;21020;-79
2021/07/22 09:22:08;;;;;;;5.42;1.95;;;;;;;23.10;43.14;99566.63;1697003;83;21246;-77
2021/07/22 09:24:54;;;;;;;1.95;1.72;;;;;;;23.20;43.26;99570.33;1671892;84;21051;-73
2021/07/22 09:27:43;;;;;;;4.50;1.67;;;;;;;23.34;42.86;99577.70;1694701;84;21051;-79
2021/07/22 09:30:19;;;;;;;4.58;1.82;;;;;;;23.47;42.42;99571.14;1698785;83;21420;-80
2021/07/22 09:32:49;;;;;;;2.65;1.90;;;;;;;23.53;42.40;99567.63;1692687;83;21062;-76
2021/07/22 09:35:17;;;;;;;4.17;1.98;;;;;;;23.57;42.89;99563.05;1693296;84;21904;-80
2021/07/22 09:37:48;;;;;;;8.60;2.42;;;;;;;23.60;41.55;99553.56;1713775;83;21689;-76
2021/07/22 09:40:31;;;;;;;4.50;2.47;;;;;;;23.60;38.95;99575.52;1703037;83;21015;-77
2021/07/22 09:42:57;;;;;;;3.47;2.98;;;;;;;23.49;39.84;99559.84;1671704;83;21040;-75
2021/07/22 09:45:26;;;;;;;3.30;1.80;;;;;;;23.40;40.81;99573.02;1698685;83;21059;-75
2021/07/22 09:47:55;;;;;;;3.00;1.92;;;;;;;23.40;41.35;99575.77;1729390;83;21811;-76
2021/07/22 09:50:23;;;;;;;1.95;1.62;;;;;;;23.42;41.83;99576.81;1727007;81;21035;-75
2021/07/22 09:53:08;;;;;;;7.85;1.62;;;;;;;23.45;41.57;99574.22;1690415;84;20944;-80
2021/07/22 09:55:36;;;;;;;2.05;1.80;;;;;;;23.41;41.76;99574.63;1669283;84;21042;-82
2021/07/22 09:58:04;;;;;;;2.52;2.00;;;;;;;23.36;41.63;99561.12;1700506;84;21023;-80
2021/07/22 10:00:32;;;;;;;2.42;2.22;;;;;;;23.39;41.53;99567.33;1671245;84;21059;-78
2021/07/22 10:03:02;;;;;;;4.35;2.15;;;;;;;23.44;41.89;99574.01;1709308;83;21053;-73
2021/07/22 10:05:48;;;;;;;3.47;2.27;;;;;;;23.41;41.63;99555.42;1729703;81;20976;-74
2021/07/22 10:08:18;;;;;;;4.37;1.92;;;;;;;23.41;42.42;99575.20;1729300;83;21014;-75
2021/07/22 10:10:51;;;;;;;2.05;1.60;;;;;;;23.37;42.10;99568.78;1729523;83;21039;-75
2021/07/22 10:13:23;;;;;;;3.55;2.17;;;;;;;23.38;43.18;99569.83;1695144;83;21095;-76
2021/07/22 10:15:49;;;;;;;3.02;2.33;;;;;;;23.45;43.06;99558.34;1695610;81;20992;-76
2021/07/22 10:18:16;;;;;;;2.35;1.67;;;;;;;23.52;42.50;99566.81;1730185;81;21477;-82
2021/07/22 10:20:43;;;;;;;2.85;2.33;;;;;;;23.54;42.73;99563.74;1707226;81;21019;-83
2021/07/22 10:23:11;;;;;;;2.35;2.08;;;;;;;23.59;42.91;99564.90;1729534;83;21079;-79
2021/07/22 10:25:37;;;;;;;2.72;1.70;;;;;;;23.69;42.30;99568.59;1698846;83;21117;-79
2021/07/22 10:28:03;;;;;;;2.10;1.90;;;;;;;23.78;41.29;99561.05;1703037;83;21043;-74
2021/07/22 10:30:30;;;;;;;2.85;2.05;;;;;;;23.79;40.97;99567.56;1697164;83;21008;-76
2021/07/22 10:32:59;;;;;;;2.62;1.85;;;;;;;23.86;41.86;99573.87;1736610;81;20951;-81
2021/07/22 10:35:32;;;;;;;9.25;2.40;;;;;;;24.01;41.58;99555.36;1756922;81;21051;-75
2021/07/22 10:38:15;;;;;;;4.03;1.90;;;;;;;24.06;39.77;99573.00;1720398;81;21133;-73
2021/07/22 10:40:57;;;;;;;4.92;2.75;;;;;;;23.93;39.62;99573.33;1760565;81;20911;-74
2021/07/22 10:43:46;;;;;;;2.45;1.70;;;;;;;23.81;40.16;99570.78;1765234;81;20963;-75
2021/07/22 10:46:17;;;;;;;2.12;1.75;;;;;;;23.79;40.71;99567.56;1735048;81;20988;-75
2021/07/22 10:48:45;;;;;;;4.55;2.05;;;;;;;23.97;40.04;99586.61;1694779;84;21029;-73
2021/07/22 10:51:15;;;;;;;3.58;2.33;;;;;;;24.10;39.73;99556.05;1691154;83;21568;-75
2021/07/22 10:53:54;;;;;;;2.55;1.27;;;;;;;24.25;38.05;99564.22;1729306;83;21090;-76
2021/07/22 10:56:44;;;;;;;4.40;1.90;;;;;;;24.32;37.89;99555.61;1698601;83;20991;-81
2021/07/22 10:59:11;;;;;;;1.72;1.60;;;;;;;24.32;38.54;99579.55;1711043;83;21473;-80
2021/07/22 11:01:48;;;;;;;9.03;2.08;;;;;;;24.26;38.18;99574.08;1667084;84;21036;-79
2021/07/22 11:04:38;;;;;;;1.95;1.40;;;;;;;24.22;37.94;99578.66;1718566;81;21148;-81
2021/07/22 11:07:07;;;;;;;1.57;1.47;;;;;;;24.14;38.47;99565.78;1753066;81;21054;-81
2021/07/22 11:09:54;;;;;;;2.52;2.25;;;;;;;24.23;38.66;99561.80;1712061;81;21084;-79
2021/07/22 11:12:43;;;;;;;3.10;2.10;;;;;;;24.28;37.29;99556.08;1683958;83;20955;-77
2021/07/22 11:15:51;;;;;;;6.15;4.67;;;;;;;24.36;37.07;99535.70;1720097;81;21089;-78
2021/07/22 11:18:46;;;;;;;6.33;2.42;;;;;;;24.44;37.00;99554.81;1753234;81;22179;-73
2021/07/22 11:21:26;;;;;;;3.85;2.17;;;;;;;24.48;36.35;99616.78;1732007;81;21745;-74
2021/07/22 11:24:06;;;;;;;3.45;1.90;;;;;;;24.45;37.19;99570.17;1694614;83;20978;-74
2021/07/22 11:26:38;;;;;;;1.70;1.42;;;;;;;24.55;38.04;99575.78;1722923;83;21025;-75
2021/07/22 11:29:06;;;;;;;3.50;1.67;;;;;;;24.60;35.85;99567.30;1673478;85;21062;-76
2021/07/22 11:31:47;;;;;;;3.90;1.80;;;;;;;24.52;35.81;99573.70;1681087;84;21036;-75
2021/07/22 11:34:15;;;;;;;5.75;1.87;;;;;;;24.54;36.27;99559.05;1750943;81;21047;-74
2021/07/22 11:36:42;;;;;;;1.77;1.47;;;;;;;24.58;35.78;99564.88;1717880;81;20944;-75
2021/07/22 11:39:08;;;;;;;2.98;2.17;;;;;;;24.60;35.76;99550.80;1716452;81;21010;-77
2021/07/22 11:41:34;;;;;;;11.25;2.40;;;;;;;24.67;36.17;99560.63;1733959;82;21154;-78
2021/07/22 11:44:03;;;;;;;5.95;1.87;;;;;;;24.72;34.61;99579.07;1751188;82;21203;-82
2021/07/22 11:46:43;;;;;;;5.40;1.70;;;;;;;24.67;35.15;99569.68;1751330;82;20984;-77